Terminal Aerodrome Forecast
Issued by NWS

Home | Current Version | Previous Version | Text Only | Print | Product List | Glossary On
Versions: 1 2 3 4 5 6 7 8 9 10 11 12 13 14 15 16 17 18 19 20 21 22 23 24 25 26 27
000
FTUS46 KSEW 232100 AAA
TAFSEA
TAF AMD
KSEA 232103Z 2321/2424 19015KT P6SM VCTS SCT035CB BKN060
      TEMPO 2321/2324 19013G23KT -SHRA BKN035 OVC060
     FM240000 19010KT P6SM SCT035 BKN060
      TEMPO 2400/2404 -SHRA
     FM240400 17007KT P6SM SCT028 BKN060 BKN110
     FM241200 11005KT P6SM SCT060 BKN110
     FM241800 05008KT P6SM SCT110 BKN200=

USA.gov is the U.S. government's official web portal to all federal, state and local government web resources and services.